sensor_id;sensor_type;location;lat;lon;timestamp;temperature;humidity
68842;SHT35;55849;48.482;2.332;2023-09-30T05:53:01;16.72;62.13
68842;SHT35;55849;48.482;2.332;2023-09-30T05:56:03;16.75;62.46
68842;SHT35;55849;48.482;2.332;2023-09-30T05:59:05;16.76;62.30
68842;SHT35;55849;48.482;2.332;2023-09-30T06:02:07;16.76;62.24
68842;SHT35;55849;48.482;2.332;2023-09-30T06:05:08;16.76;62.26
68842;SHT35;55849;48.482;2.332;2023-09-30T06:08:12;16.75;62.50
68842;SHT35;55849;48.482;2.332;2023-09-30T06:11:18;16.76;62.49
68842;SHT35;55849;48.482;2.332;2023-09-30T06:14:21;16.75;62.49
68842;SHT35;55849;48.482;2.332;2023-09-30T06:17:23;16.77;62.61
68842;SHT35;55849;48.482;2.332;2023-09-30T06:20:26;16.80;62.66
68842;SHT35;55849;48.482;2.332;2023-09-30T06:23:32;16.80;62.70
68842;SHT35;55849;48.482;2.332;2023-09-30T06:26:33;16.80;62.89
68842;SHT35;55849;48.482;2.332;2023-09-30T06:29:35;16.80;63.03
68842;SHT35;55849;48.482;2.332;2023-09-30T06:32:37;16.81;63.09
68842;SHT35;55849;48.482;2.332;2023-09-30T06:35:40;16.84;63.03
68842;SHT35;55849;48.482;2.332;2023-09-30T06:38:51;16.87;63.24
68842;SHT35;55849;48.482;2.332;2023-09-30T06:41:53;16.89;63.30
68842;SHT35;55849;48.482;2.332;2023-09-30T06:44:54;16.91;63.40
68842;SHT35;55849;48.482;2.332;2023-09-30T06:47:56;16.93;63.65
68842;SHT35;55849;48.482;2.332;2023-09-30T06:50:58;16.96;63.65
68842;SHT35;55849;48.482;2.332;2023-09-30T06:54:04;16.96;63.90
68842;SHT35;55849;48.482;2.332;2023-09-30T06:57:06;16.97;64.08
68842;SHT35;55849;48.482;2.332;2023-09-30T07:00:11;16.99;64.12
68842;SHT35;55849;48.482;2.332;2023-09-30T07:03:13;17.04;64.34
68842;SHT35;55849;48.482;2.332;2023-09-30T07:06:22;17.04;64.35
68842;SHT35;55849;48.482;2.332;2023-09-30T07:09:25;17.04;64.54
68842;SHT35;55849;48.482;2.332;2023-09-30T07:12:27;17.08;64.56
68842;SHT35;55849;48.482;2.332;2023-09-30T07:15:28;17.11;64.69
68842;SHT35;55849;48.482;2.332;2023-09-30T07:18:30;17.13;64.72
68842;SHT35;55849;48.482;2.332;2023-09-30T07:21:32;17.17;64.91
68842;SHT35;55849;48.482;2.332;2023-09-30T07:24:35;17.20;65.22
68842;SHT35;55849;48.482;2.332;2023-09-30T07:27:36;17.21;65.33
68842;SHT35;55849;48.482;2.332;2023-09-30T07:30:38;17.24;65.61
68842;SHT35;55849;48.482;2.332;2023-09-30T07:33:40;17.27;65.58
68842;SHT35;55849;48.482;2.332;2023-09-30T07:36:42;17.30;65.64
68842;SHT35;55849;48.482;2.332;2023-09-30T07:39:45;17.34;65.71
68842;SHT35;55849;48.482;2.332;2023-09-30T07:42:46;17.38;65.67
68842;SHT35;55849;48.482;2.332;2023-09-30T07:45:48;17.41;65.90
68842;SHT35;55849;48.482;2.332;2023-09-30T07:48:49;17.45;66.09
68842;SHT35;55849;48.482;2.332;2023-09-30T07:51:51;17.48;66.29
68842;SHT35;55849;48.482;2.332;2023-09-30T07:54:54;17.50;66.32
68842;SHT35;55849;48.482;2.332;2023-09-30T07:57:56;17.56;66.20
68842;SHT35;55849;48.482;2.332;2023-09-30T08:01:00;17.59;66.47
68842;SHT35;55849;48.482;2.332;2023-09-30T08:04:01;17.65;66.70
68842;SHT35;55849;48.482;2.332;2023-09-30T08:07:03;17.67;66.23
68842;SHT35;55849;48.482;2.332;2023-09-30T08:10:07;17.69;66.86
68842;SHT35;55849;48.482;2.332;2023-09-30T08:13:13;17.73;66.40
68842;SHT35;55849;48.482;2.332;2023-09-30T08:16:15;17.76;66.45
68842;SHT35;55849;48.482;2.332;2023-09-30T08:19:17;17.80;66.51
68842;SHT35;55849;48.482;2.332;2023-09-30T08:22:21;17.80;66.74
68842;SHT35;55849;48.482;2.332;2023-09-30T08:25:27;17.87;66.52
68842;SHT35;55849;48.482;2.332;2023-09-30T08:28:29;17.87;66.53
68842;SHT35;55849;48.482;2.332;2023-09-30T08:31:30;17.89;66.66
68842;SHT35;55849;48.482;2.332;2023-09-30T08:34:33;17.94;66.69
68842;SHT35;55849;48.482;2.332;2023-09-30T08:37:34;17.97;66.67
68842;SHT35;55849;48.482;2.332;2023-09-30T08:40:37;18.01;66.83
68842;SHT35;55849;48.482;2.332;2023-09-30T08:43:40;18.01;66.82
68842;SHT35;55849;48.482;2.332;2023-09-30T08:46:41;18.04;66.54
68842;SHT35;55849;48.482;2.332;2023-09-30T08:49:43;18.08;66.64
68842;SHT35;55849;48.482;2.332;2023-09-30T08:52:45;18.09;66.90
68842;SHT35;55849;48.482;2.332;2023-09-30T08:55:52;18.14;66.91
68842;SHT35;55849;48.482;2.332;2023-09-30T08:58:57;18.17;66.88
68842;SHT35;55849;48.482;2.332;2023-09-30T09:01:59;18.21;67.19
68842;SHT35;55849;48.482;2.332;2023-09-30T09:05:01;18.22;66.91
68842;SHT35;55849;48.482;2.332;2023-09-30T09:08:03;18.26;66.78
68842;SHT35;55849;48.482;2.332;2023-09-30T09:11:07;18.32;67.03
68842;SHT35;55849;48.482;2.332;2023-09-30T09:14:10;18.33;67.18
68842;SHT35;55849;48.482;2.332;2023-09-30T09:17:12;18.36;67.58
68842;SHT35;55849;48.482;2.332;2023-09-30T09:20:17;18.41;67.48
68842;SHT35;55849;48.482;2.332;2023-09-30T09:23:20;18.46;67.61
68842;SHT35;55849;48.482;2.332;2023-09-30T09:26:28;18.49;67.42
68842;SHT35;55849;48.482;2.332;2023-09-30T09:29:30;18.52;67.51
68842;SHT35;55849;48.482;2.332;2023-09-30T09:32:32;18.56;67.34
68842;SHT35;55849;48.482;2.332;2023-09-30T09:35:34;18.60;67.89
68842;SHT35;55849;48.482;2.332;2023-09-30T09:38:43;18.64;67.49
68842;SHT35;55849;48.482;2.332;2023-09-30T09:41:53;18.69;67.60
68842;SHT35;55849;48.482;2.332;2023-09-30T09:44:59;18.74;67.84
68842;SHT35;55849;48.482;2.332;2023-09-30T09:48:04;18.80;67.96
68842;SHT35;55849;48.482;2.332;2023-09-30T09:51:09;18.78;67.55
68842;SHT35;55849;48.482;2.332;2023-09-30T09:54:14;18.87;67.51
68842;SHT35;55849;48.482;2.332;2023-09-30T09:57:18;18.88;67.86
68842;SHT35;55849;48.482;2.332;2023-09-30T10:00:22;18.95;68.57
68842;SHT35;55849;48.482;2.332;2023-09-30T10:03:24;19.01;68.10
68842;SHT35;55849;48.482;2.332;2023-09-30T10:06:26;19.08;68.42
68842;SHT35;55849;48.482;2.332;2023-09-30T10:09:28;19.10;68.17
68842;SHT35;55849;48.482;2.332;2023-09-30T10:12:37;19.16;68.45
68842;SHT35;55849;48.482;2.332;2023-09-30T10:15:39;19.19;67.90
68842;SHT35;55849;48.482;2.332;2023-09-30T10:19:07;19.28;68.93
68842;SHT35;55849;48.482;2.332;2023-09-30T10:22:22;19.35;69.28
68842;SHT35;55849;48.482;2.332;2023-09-30T10:25:34;19.40;68.35
68842;SHT35;55849;48.482;2.332;2023-09-30T10:28:39;19.45;68.16
68842;SHT35;55849;48.482;2.332;2023-09-30T10:31:49;19.53;68.21
68842;SHT35;55849;48.482;2.332;2023-09-30T10:34:51;19.57;68.64
68842;SHT35;55849;48.482;2.332;2023-09-30T10:41:49;19.69;68.40
68842;SHT35;55849;48.482;2.332;2023-09-30T10:44:52;19.73;68.41
68842;SHT35;55849;48.482;2.332;2023-09-30T10:47:54;19.81;69.55
68842;SHT35;55849;48.482;2.332;2023-09-30T10:50:56;19.88;69.40
68842;SHT35;55849;48.482;2.332;2023-09-30T10:53:59;19.94;69.42
68842;SHT35;55849;48.482;2.332;2023-09-30T10:57:01;20.04;69.14
68842;SHT35;55849;48.482;2.332;2023-09-30T11:00:09;20.06;69.82
68842;SHT35;55849;48.482;2.332;2023-09-30T11:03:11;20.16;68.80
68842;SHT35;55849;48.482;2.332;2023-09-30T11:06:14;20.23;69.40
68842;SHT35;55849;48.482;2.332;2023-09-30T11:09:18;20.33;69.10
68842;SHT35;55849;48.482;2.332;2023-09-30T11:12:20;20.41;68.80
68842;SHT35;55849;48.482;2.332;2023-09-30T11:15:23;20.49;68.86
68842;SHT35;55849;48.482;2.332;2023-09-30T11:18:25;20.56;68.55
68842;SHT35;55849;48.482;2.332;2023-09-30T11:21:28;20.65;68.36
68842;SHT35;55849;48.482;2.332;2023-09-30T11:24:29;20.73;68.35
68842;SHT35;55849;48.482;2.332;2023-09-30T11:27:33;20.75;68.79
68842;SHT35;55849;48.482;2.332;2023-09-30T11:30:53;20.87;67.77
68842;SHT35;55849;48.482;2.332;2023-09-30T11:33:54;20.91;68.80
68842;SHT35;55849;48.482;2.332;2023-09-30T11:37:00;20.96;68.06
68842;SHT35;55849;48.482;2.332;2023-09-30T11:40:13;21.05;68.12
68842;SHT35;55849;48.482;2.332;2023-09-30T11:43:15;21.16;67.70
68842;SHT35;55849;48.482;2.332;2023-09-30T11:46:18;21.22;67.21
68842;SHT35;55849;48.482;2.332;2023-09-30T11:49:27;21.32;66.44
68842;SHT35;55849;48.482;2.332;2023-09-30T11:52:29;21.39;66.07
68842;SHT35;55849;48.482;2.332;2023-09-30T11:55:31;21.49;67.71
68842;SHT35;55849;48.482;2.332;2023-09-30T11:58:33;21.57;67.97
68842;SHT35;55849;48.482;2.332;2023-09-30T12:01:36;21.68;66.78
68842;SHT35;55849;48.482;2.332;2023-09-30T12:04:38;21.81;66.11
68842;SHT35;55849;48.482;2.332;2023-09-30T12:07:40;21.88;65.37
68842;SHT35;55849;48.482;2.332;2023-09-30T12:10:42;22.02;65.78
68842;SHT35;55849;48.482;2.332;2023-09-30T12:13:44;22.10;64.79
68842;SHT35;55849;48.482;2.332;2023-09-30T12:16:50;22.26;65.40
68842;SHT35;55849;48.482;2.332;2023-09-30T12:19:51;22.39;64.51
68842;SHT35;55849;48.482;2.332;2023-09-30T12:22:53;22.57;65.88
68842;SHT35;55849;48.482;2.332;2023-09-30T12:25:54;22.68;65.10
68842;SHT35;55849;48.482;2.332;2023-09-30T12:28:56;22.75;64.48
68842;SHT35;55849;48.482;2.332;2023-09-30T12:31:59;22.85;63.05
68842;SHT35;55849;48.482;2.332;2023-09-30T12:35:01;22.94;64.53
68842;SHT35;55849;48.482;2.332;2023-09-30T12:38:05;23.03;63.74
68842;SHT35;55849;48.482;2.332;2023-09-30T12:41:06;23.20;65.02
68842;SHT35;55849;48.482;2.332;2023-09-30T12:44:09;23.40;62.77
68842;SHT35;55849;48.482;2.332;2023-09-30T12:47:12;23.50;62.55
68842;SHT35;55849;48.482;2.332;2023-09-30T12:50:14;23.62;62.95
68842;SHT35;55849;48.482;2.332;2023-09-30T12:53:15;23.75;62.18
68842;SHT35;55849;48.482;2.332;2023-09-30T12:56:17;23.93;60.99
68842;SHT35;55849;48.482;2.332;2023-09-30T12:59:19;24.10;60.20
68842;SHT35;55849;48.482;2.332;2023-09-30T13:02:26;24.20;59.93
68842;SHT35;55849;48.482;2.332;2023-09-30T13:05:27;24.35;61.00
68842;SHT35;55849;48.482;2.332;2023-09-30T13:08:30;24.54;60.05
68842;SHT35;55849;48.482;2.332;2023-09-30T13:11:34;24.72;59.59
68842;SHT35;55849;48.482;2.332;2023-09-30T13:14:35;24.94;59.52
68842;SHT35;55849;48.482;2.332;2023-09-30T13:17:40;25.11;58.56
68842;SHT35;55849;48.482;2.332;2023-09-30T13:20:41;25.24;58.13
68842;SHT35;55849;48.482;2.332;2023-09-30T13:23:43;25.34;59.23
68842;SHT35;55849;48.482;2.332;2023-09-30T13:26:45;25.39;57.67
68842;SHT35;55849;48.482;2.332;2023-09-30T13:29:47;25.45;57.94
68842;SHT35;55849;48.482;2.332;2023-09-30T13:32:50;25.44;56.66
68842;SHT35;55849;48.482;2.332;2023-09-30T13:35:51;25.38;56.81
68842;SHT35;55849;48.482;2.332;2023-09-30T13:38:55;25.45;57.64
68842;SHT35;55849;48.482;2.332;2023-09-30T13:41:57;25.61;56.76
68842;SHT35;55849;48.482;2.332;2023-09-30T13:44:59;25.73;56.82
68842;SHT35;55849;48.482;2.332;2023-09-30T13:48:02;25.89;56.27
68842;SHT35;55849;48.482;2.332;2023-09-30T13:51:05;26.03;56.21
68842;SHT35;55849;48.482;2.332;2023-09-30T13:54:06;26.24;57.03
68842;SHT35;55849;48.482;2.332;2023-09-30T13:57:08;26.48;56.84
68842;SHT35;55849;48.482;2.332;2023-09-30T14:00:11;26.72;54.74
68842;SHT35;55849;48.482;2.332;2023-09-30T14:03:15;26.91;54.06
68842;SHT35;55849;48.482;2.332;2023-09-30T14:06:16;27.08;54.70
68842;SHT35;55849;48.482;2.332;2023-09-30T14:09:18;27.28;53.85
68842;SHT35;55849;48.482;2.332;2023-09-30T14:12:19;27.48;51.91
68842;SHT35;55849;48.482;2.332;2023-09-30T14:15:21;27.57;51.81
68842;SHT35;55849;48.482;2.332;2023-09-30T14:18:24;27.73;51.91
68842;SHT35;55849;48.482;2.332;2023-09-30T14:21:25;27.82;51.61
68842;SHT35;55849;48.482;2.332;2023-09-30T14:24:27;27.93;52.91
68842;SHT35;55849;48.482;2.332;2023-09-30T14:27:29;28.11;52.53
68842;SHT35;55849;48.482;2.332;2023-09-30T14:30:31;28.19;52.52
68842;SHT35;55849;48.482;2.332;2023-09-30T14:33:35;28.28;53.02
68842;SHT35;55849;48.482;2.332;2023-09-30T14:36:36;28.39;51.56
68842;SHT35;55849;48.482;2.332;2023-09-30T14:39:38;28.53;51.08
68842;SHT35;55849;48.482;2.332;2023-09-30T14:42:39;28.66;50.94
68842;SHT35;55849;48.482;2.332;2023-09-30T14:45:42;28.77;50.09
68842;SHT35;55849;48.482;2.332;2023-09-30T14:48:46;28.88;50.55
68842;SHT35;55849;48.482;2.332;2023-09-30T14:51:48;28.98;51.47
68842;SHT35;55849;48.482;2.332;2023-09-30T14:54:49;29.05;50.76
68842;SHT35;55849;48.482;2.332;2023-09-30T14:57:51;29.12;50.25
68842;SHT35;55849;48.482;2.332;2023-09-30T15:00:52;29.15;50.18
68842;SHT35;55849;48.482;2.332;2023-09-30T15:03:55;29.10;50.75
68842;SHT35;55849;48.482;2.332;2023-09-30T15:06:59;29.10;50.55
68842;SHT35;55849;48.482;2.332;2023-09-30T15:10:01;29.05;50.60
68842;SHT35;55849;48.482;2.332;2023-09-30T15:13:03;28.91;50.90
68842;SHT35;55849;48.482;2.332;2023-09-30T15:16:05;28.77;50.59
68842;SHT35;55849;48.482;2.332;2023-09-30T15:19:08;28.67;50.54
68842;SHT35;55849;48.482;2.332;2023-09-30T15:22:10;28.66;51.39
68842;SHT35;55849;48.482;2.332;2023-09-30T15:25:11;28.64;51.93
68842;SHT35;55849;48.482;2.332;2023-09-30T15:28:13;28.66;51.41
68842;SHT35;55849;48.482;2.332;2023-09-30T15:31:14;28.66;52.07
68842;SHT35;55849;48.482;2.332;2023-09-30T15:34:17;28.69;51.94
68842;SHT35;55849;48.482;2.332;2023-09-30T15:37:19;28.67;52.17
68842;SHT35;55849;48.482;2.332;2023-09-30T15:40:21;28.71;52.44
68842;SHT35;55849;48.482;2.332;2023-09-30T15:43:22;28.71;52.60
68842;SHT35;55849;48.482;2.332;2023-09-30T15:46:25;28.73;52.47
68842;SHT35;55849;48.482;2.332;2023-09-30T15:49:28;28.73;52.63
68842;SHT35;55849;48.482;2.332;2023-09-30T15:52:30;28.71;52.76
68842;SHT35;55849;48.482;2.332;2023-09-30T15:55:31;28.70;52.74
68842;SHT35;55849;48.482;2.332;2023-09-30T15:58:33;28.64;52.52
68842;SHT35;55849;48.482;2.332;2023-09-30T16:01:35;28.57;52.53
68842;SHT35;55849;48.482;2.332;2023-09-30T16:04:38;28.45;52.73
68842;SHT35;55849;48.482;2.332;2023-09-30T16:07:39;28.28;52.96
68842;SHT35;55849;48.482;2.332;2023-09-30T16:10:43;28.09;53.18
68842;SHT35;55849;48.482;2.332;2023-09-30T16:13:44;27.90;53.46
68842;SHT35;55849;48.482;2.332;2023-09-30T16:16:46;27.77;53.74
68842;SHT35;55849;48.482;2.332;2023-09-30T16:19:49;27.57;53.87
68842;SHT35;55849;48.482;2.332;2023-09-30T16:22:51;27.39;54.31
68842;SHT35;55849;48.482;2.332;2023-09-30T16:25:52;27.25;54.52
68842;SHT35;55849;48.482;2.332;2023-09-30T16:28:54;27.10;54.68
68842;SHT35;55849;48.482;2.332;2023-09-30T16:31:55;26.96;54.98
68842;SHT35;55849;48.482;2.332;2023-09-30T16:34:59;26.84;55.35
68842;SHT35;55849;48.482;2.332;2023-09-30T16:38:00;26.72;55.60
68842;SHT35;55849;48.482;2.332;2023-09-30T16:41:02;26.57;55.84
68842;SHT35;55849;48.482;2.332;2023-09-30T16:44:04;26.48;56.06
68842;SHT35;55849;48.482;2.332;2023-09-30T16:47:07;26.34;56.42
68842;SHT35;55849;48.482;2.332;2023-09-30T16:50:10;26.22;56.65
68842;SHT35;55849;48.482;2.332;2023-09-30T16:53:11;26.05;56.89
68842;SHT35;55849;48.482;2.332;2023-09-30T16:56:13;25.97;57.04
68842;SHT35;55849;48.482;2.332;2023-09-30T16:59:15;25.83;57.22
68842;SHT35;55849;48.482;2.332;2023-09-30T17:02:16;25.69;57.43
68842;SHT35;55849;48.482;2.332;2023-09-30T17:05:19;25.57;57.62
68842;SHT35;55849;48.482;2.332;2023-09-30T17:08:21;25.45;57.77
68842;SHT35;55849;48.482;2.332;2023-09-30T17:11:23;25.33;57.76
68842;SHT35;55849;48.482;2.332;2023-09-30T17:14:24;25.21;57.77
68842;SHT35;55849;48.482;2.332;2023-09-30T17:17:26;25.07;58.15
68842;SHT35;55849;48.482;2.332;2023-09-30T17:20:31;24.99;58.20
68842;SHT35;55849;48.482;2.332;2023-09-30T17:23:33;24.90;58.14
68842;SHT35;55849;48.482;2.332;2023-09-30T17:26:34;24.79;58.23
68842;SHT35;55849;48.482;2.332;2023-09-30T17:29:36;24.69;58.39
68842;SHT35;55849;48.482;2.332;2023-09-30T17:32:38;24.58;58.09
68842;SHT35;55849;48.482;2.332;2023-09-30T17:35:42;24.47;58.46
68842;SHT35;55849;48.482;2.332;2023-09-30T17:38:43;24.35;58.53
68842;SHT35;55849;48.482;2.332;2023-09-30T17:41:45;24.25;58.37
68842;SHT35;55849;48.482;2.332;2023-09-30T17:44:47;24.14;58.69
68842;SHT35;55849;48.482;2.332;2023-09-30T17:47:48;24.06;58.80
68842;SHT35;55849;48.482;2.332;2023-09-30T17:50:51;23.95;59.03
68842;SHT35;55849;48.482;2.332;2023-09-30T17:53:53;23.85;59.08
68842;SHT35;55849;48.482;2.332;2023-09-30T17:56:55;23.75;59.28
68842;SHT35;55849;48.482;2.332;2023-09-30T17:59:56;23.65;59.14
68842;SHT35;55849;48.482;2.332;2023-09-30T18:02:58;23.57;59.51
68842;SHT35;55849;48.482;2.332;2023-09-30T18:06:05;23.50;59.02
68842;SHT35;55849;48.482;2.332;2023-09-30T18:09:07;23.38;59.11
68842;SHT35;55849;48.482;2.332;2023-09-30T18:12:09;23.31;59.25
68842;SHT35;55849;48.482;2.332;2023-09-30T18:15:10;23.21;59.42
68842;SHT35;55849;48.482;2.332;2023-09-30T18:18:12;23.10;59.43
68842;SHT35;55849;48.482;2.332;2023-09-30T18:21:16;23.06;59.80
68842;SHT35;55849;48.482;2.332;2023-09-30T18:24:17;22.98;59.52
68842;SHT35;55849;48.482;2.332;2023-09-30T18:27:19;22.92;59.83
68842;SHT35;55849;48.482;2.332;2023-09-30T18:30:20;22.84;59.70
68842;SHT35;55849;48.482;2.332;2023-09-30T18:33:22;22.79;59.79
68842;SHT35;55849;48.482;2.332;2023-09-30T18:36:25;22.69;59.84
68842;SHT35;55849;48.482;2.332;2023-09-30T18:39:28;22.62;59.86
68842;SHT35;55849;48.482;2.332;2023-09-30T18:42:29;22.57;60.24
68842;SHT35;55849;48.482;2.332;2023-09-30T18:45:32;22.51;59.76
68842;SHT35;55849;48.482;2.332;2023-09-30T18:48:34;22.44;59.79
68842;SHT35;55849;48.482;2.332;2023-09-30T18:51:37;22.39;59.88
68842;SHT35;55849;48.482;2.332;2023-09-30T18:54:38;22.27;59.68
68842;SHT35;55849;48.482;2.332;2023-09-30T18:57:40;22.20;59.63
68842;SHT35;55849;48.482;2.332;2023-09-30T19:00:44;22.13;60.10
68842;SHT35;55849;48.482;2.332;2023-09-30T19:03:46;22.08;60.60
68842;SHT35;55849;48.482;2.332;2023-09-30T19:06:49;22.06;60.55
68842;SHT35;55849;48.482;2.332;2023-09-30T19:09:51;22.02;60.52
68842;SHT35;55849;48.482;2.332;2023-09-30T19:12:52;21.93;60.63
68842;SHT35;55849;48.482;2.332;2023-09-30T19:15:54;21.91;60.81
68842;SHT35;55849;48.482;2.332;2023-09-30T19:18:56;21.84;60.98
68842;SHT35;55849;48.482;2.332;2023-09-30T19:21:59;21.78;61.00
68842;SHT35;55849;48.482;2.332;2023-09-30T19:25:00;21.73;60.77
68842;SHT35;55849;48.482;2.332;2023-09-30T19:28:02;21.65;60.50
68842;SHT35;55849;48.482;2.332;2023-09-30T19:31:04;21.58;60.21
68842;SHT35;55849;48.482;2.332;2023-09-30T19:34:06;21.53;60.29
68842;SHT35;55849;48.482;2.332;2023-09-30T19:37:09;21.44;60.47
68842;SHT35;55849;48.482;2.332;2023-09-30T19:40:11;21.40;60.43
68842;SHT35;55849;48.482;2.332;2023-09-30T19:43:12;21.32;60.55
68842;SHT35;55849;48.482;2.332;2023-09-30T19:46:14;21.29;60.51
68842;SHT35;55849;48.482;2.332;2023-09-30T19:49:16;21.20;60.52
68842;SHT35;55849;48.482;2.332;2023-09-30T19:52:19;21.16;60.93
68842;SHT35;55849;48.482;2.332;2023-09-30T19:55:20;21.09;61.25
68842;SHT35;55849;48.482;2.332;2023-09-30T19:58:22;21.05;61.08
68842;SHT35;55849;48.482;2.332;2023-09-30T20:01:24;21.03;61.09
68842;SHT35;55849;48.482;2.332;2023-09-30T20:04:25;20.96;60.71
68842;SHT35;55849;48.482;2.332;2023-09-30T20:07:28;20.94;61.23
68842;SHT35;55849;48.482;2.332;2023-09-30T20:10:30;20.91;61.47
68842;SHT35;55849;48.482;2.332;2023-09-30T20:13:33;20.84;61.68
68842;SHT35;55849;48.482;2.332;2023-09-30T20:16:36;20.80;61.65
68842;SHT35;55849;48.482;2.332;2023-09-30T20:19:38;20.75;61.64
68842;SHT35;55849;48.482;2.332;2023-09-30T20:22:41;20.73;61.57
68842;SHT35;55849;48.482;2.332;2023-09-30T20:25:43;20.71;61.65
68842;SHT35;55849;48.482;2.332;2023-09-30T20:28:45;20.68;61.56
68842;SHT35;55849;48.482;2.332;2023-09-30T20:31:46;20.63;61.22
68842;SHT35;55849;48.482;2.332;2023-09-30T20:34:48;20.54;61.54
68842;SHT35;55849;48.482;2.332;2023-09-30T20:37:51;20.53;61.71
68842;SHT35;55849;48.482;2.332;2023-09-30T20:40:53;20.49;61.79
68842;SHT35;55849;48.482;2.332;2023-09-30T20:43:55;20.44;61.34
68842;SHT35;55849;48.482;2.332;2023-09-30T20:46:57;20.37;61.43
68842;SHT35;55849;48.482;2.332;2023-09-30T20:49:58;20.32;60.96
68842;SHT35;55849;48.482;2.332;2023-09-30T20:53:02;20.28;61.20
68842;SHT35;55849;48.482;2.332;2023-09-30T20:56:09;20.21;61.43
68842;SHT35;55849;48.482;2.332;2023-09-30T20:59:11;20.19;61.28
68842;SHT35;55849;48.482;2.332;2023-09-30T21:02:13;20.12;61.15
68842;SHT35;55849;48.482;2.332;2023-09-30T21:05:15;20.06;61.48
68842;SHT35;55849;48.482;2.332;2023-09-30T21:08:18;20.02;61.79
68842;SHT35;55849;48.482;2.332;2023-09-30T21:11:21;20.04;61.69
68842;SHT35;55849;48.482;2.332;2023-09-30T21:14:23;20.01;61.52
68842;SHT35;55849;48.482;2.332;2023-09-30T21:17:25;19.95;61.54
68842;SHT35;55849;48.482;2.332;2023-09-30T21:20:28;19.92;61.36
68842;SHT35;55849;48.482;2.332;2023-09-30T21:23:32;19.88;61.37
68842;SHT35;55849;48.482;2.332;2023-09-30T21:26:34;19.82;61.19
68842;SHT35;55849;48.482;2.332;2023-09-30T21:29:36;19.77;61.60
68842;SHT35;55849;48.482;2.332;2023-09-30T21:32:38;19.73;61.55
68842;SHT35;55849;48.482;2.332;2023-09-30T21:35:39;19.73;61.14
68842;SHT35;55849;48.482;2.332;2023-09-30T21:38:42;19.66;61.56
68842;SHT35;55849;48.482;2.332;2023-09-30T21:41:46;19.63;61.52
68842;SHT35;55849;48.482;2.332;2023-09-30T21:44:47;19.59;61.20
68842;SHT35;55849;48.482;2.332;2023-09-30T21:47:49;19.54;61.68
68842;SHT35;55849;48.482;2.332;2023-09-30T21:50:50;19.50;61.48
68842;SHT35;55849;48.482;2.332;2023-09-30T21:53:53;19.47;61.58
68842;SHT35;55849;48.482;2.332;2023-09-30T21:56:55;19.45;61.50
68842;SHT35;55849;48.482;2.332;2023-09-30T21:59:57;19.42;61.30
68842;SHT35;55849;48.482;2.332;2023-09-30T22:02:58;19.36;61.30
68842;SHT35;55849;48.482;2.332;2023-09-30T22:06:00;19.32;61.14
68842;SHT35;55849;48.482;2.332;2023-09-30T22:09:03;19.29;60.99
68842;SHT35;55849;48.482;2.332;2023-09-30T22:12:05;19.21;60.99
68842;SHT35;55849;48.482;2.332;2023-09-30T22:15:07;19.19;60.89
68842;SHT35;55849;48.482;2.332;2023-09-30T22:18:10;19.15;60.90
68842;SHT35;55849;48.482;2.332;2023-09-30T22:21:12;19.08;61.53
68842;SHT35;55849;48.482;2.332;2023-09-30T22:24:15;19.08;61.65
68842;SHT35;55849;48.482;2.332;2023-09-30T22:27:16;19.05;61.76
68842;SHT35;55849;48.482;2.332;2023-09-30T22:30:18;19.02;61.79
68842;SHT35;55849;48.482;2.332;2023-09-30T22:33:20;18.98;61.41
68842;SHT35;55849;48.482;2.332;2023-09-30T22:36:22;18.94;61.59
68842;SHT35;55849;48.482;2.332;2023-09-30T22:39:25;18.93;61.09
68842;SHT35;55849;48.482;2.332;2023-09-30T22:42:27;18.85;60.85
68842;SHT35;55849;48.482;2.332;2023-09-30T22:45:29;18.80;61.24
68842;SHT35;55849;48.482;2.332;2023-09-30T22:48:31;18.77;61.63
68842;SHT35;55849;48.482;2.332;2023-09-30T22:51:33;18.74;61.36
68842;SHT35;55849;48.482;2.332;2023-09-30T22:54:36;18.70;60.99
68842;SHT35;55849;48.482;2.332;2023-09-30T22:57:37;18.67;61.00
68842;SHT35;55849;48.482;2.332;2023-09-30T23:00:39;18.63;60.92
68842;SHT35;55849;48.482;2.332;2023-09-30T23:03:41;18.57;60.84
68842;SHT35;55849;48.482;2.332;2023-09-30T23:06:43;18.55;60.66
68842;SHT35;55849;48.482;2.332;2023-09-30T23:09:46;18.52;60.76
68842;SHT35;55849;48.482;2.332;2023-09-30T23:12:48;18.48;60.75
68842;SHT35;55849;48.482;2.332;2023-09-30T23:15:49;18.43;60.84
68842;SHT35;55849;48.482;2.332;2023-09-30T23:18:51;18.39;60.79
68842;SHT35;55849;48.482;2.332;2023-09-30T23:21:54;18.36;60.91
68842;SHT35;55849;48.482;2.332;2023-09-30T23:24:57;18.33;61.01
68842;SHT35;55849;48.482;2.332;2023-09-30T23:27:59;18.31;60.93
68842;SHT35;55849;48.482;2.332;2023-09-30T23:31:01;18.28;61.04
68842;SHT35;55849;48.482;2.332;2023-09-30T23:34:03;18.22;61.01
68842;SHT35;55849;48.482;2.332;2023-09-30T23:37:05;18.22;61.17
68842;SHT35;55849;48.482;2.332;2023-09-30T23:40:10;18.19;61.74
68842;SHT35;55849;48.482;2.332;2023-09-30T23:43:13;18.18;61.69
68842;SHT35;55849;48.482;2.332;2023-09-30T23:46:15;18.21;61.71
68842;SHT35;55849;48.482;2.332;2023-09-30T23:49:17;18.18;61.79
